createdAt,value
2023-03-24T00:00:55.781Z,12.46
2023-03-24T00:01:55.771Z,12.49
2023-03-24T00:02:55.934Z,12.56
2023-03-24T00:03:55.892Z,12.48
2023-03-24T00:04:55.752Z,12.54
2023-03-24T00:05:55.756Z,12.54
2023-03-24T00:06:55.720Z,12.59
2023-03-24T00:07:55.705Z,12.52
2023-03-24T00:08:55.691Z,12.62
2023-03-24T00:09:55.698Z,12.51
2023-03-24T00:10:55.691Z,12.48
2023-03-24T00:11:55.659Z,12.60
2023-03-24T00:12:55.649Z,12.56
2023-03-24T00:13:55.634Z,12.60
2023-03-24T00:14:55.651Z,12.60
2023-03-24T00:15:55.686Z,12.54
2023-03-24T00:16:55.609Z,12.63
2023-03-24T00:17:55.662Z,12.63
2023-03-24T00:18:55.583Z,12.49
2023-03-24T00:19:55.589Z,12.54
2023-03-24T00:20:55.565Z,12.54
2023-03-24T00:21:55.570Z,12.45
2023-03-24T00:22:55.549Z,12.38
2023-03-24T00:23:55.705Z,12.41
2023-03-24T00:24:55.529Z,12.51
2023-03-24T00:25:55.504Z,12.45
2023-03-24T00:26:55.495Z,12.48
2023-03-24T00:27:55.484Z,12.39
2023-03-24T00:28:55.474Z,12.51
2023-03-24T00:29:55.486Z,12.49
2023-03-24T00:30:55.489Z,12.49
2023-03-24T00:31:55.444Z,12.42
2023-03-24T00:32:55.459Z,12.51
2023-03-24T00:33:55.441Z,12.48
2023-03-24T00:34:55.421Z,12.52
2023-03-24T00:35:55.431Z,12.48
2023-03-24T00:36:55.397Z,12.54
2023-03-24T00:37:55.396Z,12.54
2023-03-24T00:38:55.370Z,12.49
2023-03-24T00:39:55.370Z,12.52
2023-03-24T00:40:55.356Z,12.48
2023-03-24T00:41:55.342Z,12.48
2023-03-24T00:42:55.324Z,12.62
2023-03-24T00:43:55.336Z,12.64
2023-03-24T00:44:55.305Z,12.62
2023-03-24T00:45:55.291Z,12.56
2023-03-24T00:46:55.400Z,12.59
2023-03-24T00:47:55.268Z,12.56
2023-03-24T00:48:55.301Z,12.75
2023-03-24T00:49:55.270Z,12.62
2023-03-24T00:50:55.243Z,12.64
2023-03-24T00:51:55.229Z,12.60
2023-03-24T00:52:55.217Z,12.45
2023-03-24T00:53:55.238Z,12.64
2023-03-24T00:54:55.258Z,12.45
2023-03-24T00:55:55.184Z,12.48
2023-03-24T00:56:55.235Z,12.46
2023-03-24T00:57:55.173Z,12.49
2023-03-24T00:58:55.197Z,12.52
2023-03-24T00:59:55.161Z,12.63
2023-03-24T01:00:55.164Z,12.59
2023-03-24T01:01:55.163Z,12.63
2023-03-24T01:02:55.159Z,12.52
2023-03-24T01:03:55.097Z,12.56
2023-03-24T01:04:55.102Z,12.69
2023-03-24T01:05:55.080Z,12.62
2023-03-24T01:06:55.061Z,12.67
2023-03-24T01:07:55.052Z,12.74
2023-03-24T01:08:55.040Z,12.70
2023-03-24T01:09:55.068Z,12.81
2023-03-24T01:10:55.016Z,12.77
2023-03-24T01:11:55.011Z,12.77
2023-03-24T01:12:54.997Z,12.77
2023-03-24T01:13:54.983Z,12.77
2023-03-24T01:14:54.974Z,12.70
2023-03-24T01:15:55.010Z,12.78
2023-03-24T01:16:54.948Z,12.77
2023-03-24T01:17:54.957Z,12.78
2023-03-24T01:18:54.925Z,12.78
2023-03-24T01:19:54.918Z,12.75
2023-03-24T01:20:54.919Z,12.66
2023-03-24T01:21:54.898Z,12.67
2023-03-24T01:22:54.889Z,12.57
2023-03-24T01:23:54.892Z,12.57
2023-03-24T01:24:54.865Z,12.56
2023-03-24T01:25:54.887Z,12.57
2023-03-24T01:26:54.840Z,12.52
2023-03-24T01:27:54.830Z,12.69
2023-03-24T01:28:54.818Z,12.59
2023-03-24T01:29:54.809Z,12.62
2023-03-24T01:30:54.810Z,12.64
2023-03-24T01:31:54.838Z,12.59
2023-03-24T01:32:54.811Z,12.56
2023-03-24T01:33:54.765Z,12.56
2023-03-24T01:34:54.749Z,12.57
2023-03-24T01:35:54.777Z,12.59
2023-03-24T01:36:54.731Z,12.67
2023-03-24T01:37:54.723Z,12.64
2023-03-24T01:38:54.715Z,12.64
2023-03-24T01:39:54.700Z,12.64
2023-03-24T01:40:54.717Z,12.69
2023-03-24T01:41:54.698Z,12.69
2023-03-24T01:42:54.677Z,12.57
2023-03-24T01:44:02.339Z,12.56
2023-03-24T01:44:54.653Z,12.63
2023-03-24T01:45:54.678Z,12.62
2023-03-24T01:46:54.636Z,12.64
2023-03-24T01:47:54.636Z,12.52
2023-03-24T01:48:54.608Z,12.45
2023-03-24T01:49:54.592Z,12.52
2023-03-24T01:50:54.597Z,12.46
2023-03-24T01:51:54.577Z,12.45
2023-03-24T01:52:54.571Z,12.54
2023-03-24T01:53:54.562Z,12.51
2023-03-24T01:54:54.557Z,12.46
2023-03-24T01:55:54.555Z,12.51
2023-03-24T01:56:54.531Z,12.49
2023-03-24T01:57:54.539Z,12.52
2023-03-24T01:58:54.499Z,12.48
2023-03-24T01:59:54.487Z,12.51
2023-03-24T02:00:54.523Z,12.45
2023-03-24T02:01:54.487Z,12.46
2023-03-24T02:02:54.573Z,12.48
2023-03-24T02:03:54.468Z,12.44
2023-03-24T02:04:54.447Z,12.49
2023-03-24T02:05:54.451Z,12.57
2023-03-24T02:06:54.406Z,12.57
2023-03-24T02:07:54.399Z,12.60
2023-03-24T02:08:54.385Z,12.64
2023-03-24T02:09:54.375Z,12.59
2023-03-24T02:10:54.392Z,12.54
2023-03-24T02:11:54.359Z,12.60
2023-03-24T02:12:54.348Z,12.54
2023-03-24T02:13:54.356Z,12.59
2023-03-24T02:14:54.322Z,12.64
2023-03-24T02:15:54.346Z,12.62
2023-03-24T02:16:54.303Z,12.66
2023-03-24T02:17:54.427Z,12.56
2023-03-24T02:18:54.281Z,12.60
2023-03-24T02:19:54.270Z,12.60
2023-03-24T02:20:54.282Z,12.66
2023-03-24T02:21:54.251Z,12.64
2023-03-24T02:22:54.237Z,12.69
2023-03-24T02:23:54.241Z,12.62
2023-03-24T02:24:54.215Z,12.64
2023-03-24T02:25:54.224Z,12.67
2023-03-24T02:26:54.196Z,12.69
2023-03-24T02:27:54.189Z,12.67
2023-03-24T02:28:54.172Z,12.57
2023-03-24T02:29:54.184Z,12.59
2023-03-24T02:30:54.175Z,12.62
2023-03-24T02:31:54.192Z,12.62
2023-03-24T02:32:54.233Z,12.67
2023-03-24T02:33:54.131Z,12.64
2023-03-24T02:34:54.105Z,12.51
2023-03-24T02:35:54.131Z,12.66
2023-03-24T02:36:54.087Z,12.48
2023-03-24T02:37:54.076Z,12.66
2023-03-24T02:38:54.069Z,12.60
2023-03-24T02:39:54.053Z,12.67
2023-03-24T02:40:54.061Z,12.60
2023-03-24T02:41:54.029Z,12.51
2023-03-24T02:42:54.025Z,12.52
2023-03-24T02:43:54.031Z,12.56
2023-03-24T02:44:53.999Z,12.59
2023-03-24T02:45:54.066Z,12.63
2023-03-24T02:46:53.973Z,12.59
2023-03-24T02:47:54.031Z,12.60
2023-03-24T02:48:53.954Z,12.64
2023-03-24T02:49:53.941Z,12.66
2023-03-24T02:50:53.949Z,12.66
2023-03-24T02:51:53.923Z,12.62
2023-03-24T02:52:53.911Z,12.69
2023-03-24T02:53:53.898Z,12.63
2023-03-24T02:54:53.886Z,12.66
2023-03-24T02:55:53.906Z,12.57
2023-03-24T02:56:53.940Z,12.69
2023-03-24T02:57:53.861Z,12.70
2023-03-24T02:58:53.839Z,12.64
2023-03-24T02:59:53.856Z,12.70
2023-03-24T03:00:53.874Z,12.71
2023-03-24T03:01:53.923Z,12.64
2023-03-24T03:02:53.878Z,12.67
2023-03-24T03:03:53.862Z,12.64
2023-03-24T03:04:53.785Z,12.63
2023-03-24T03:05:53.827Z,12.67
2023-03-24T03:06:53.755Z,12.67
2023-03-24T03:07:53.747Z,12.59
2023-03-24T03:08:53.740Z,12.66
2023-03-24T03:09:53.729Z,12.57
2023-03-24T03:10:53.730Z,12.60
2023-03-24T03:11:53.700Z,12.66
2023-03-24T03:12:53.699Z,12.70
2023-03-24T03:13:53.682Z,12.62
2023-03-24T03:14:53.666Z,12.63
2023-03-24T03:15:53.709Z,12.63
2023-03-24T03:16:53.689Z,12.64
2023-03-24T03:17:53.747Z,12.66
2023-03-24T03:18:53.621Z,12.67
2023-03-24T03:19:53.613Z,12.67
2023-03-24T03:20:53.624Z,12.66
2023-03-24T03:21:53.592Z,12.62
2023-03-24T03:22:53.593Z,12.64
2023-03-24T03:23:53.575Z,12.69
2023-03-24T03:24:53.564Z,12.69
2023-03-24T03:25:53.568Z,12.70
2023-03-24T03:26:53.539Z,12.57
2023-03-24T03:27:53.532Z,12.54
2023-03-24T03:28:53.517Z,12.54
2023-03-24T03:29:53.505Z,12.63
2023-03-24T03:30:53.546Z,12.48
2023-03-24T03:31:53.494Z,12.44
2023-03-24T03:32:53.541Z,12.59
2023-03-24T03:33:53.487Z,12.51
2023-03-24T03:34:53.454Z,12.63
2023-03-24T03:35:53.574Z,12.51
2023-03-24T03:36:53.441Z,12.60
2023-03-24T03:37:53.421Z,12.62
2023-03-24T03:38:53.418Z,12.52
2023-03-24T03:39:53.402Z,12.51
2023-03-24T03:40:53.406Z,12.62
2023-03-24T03:41:53.380Z,12.52
2023-03-24T03:42:53.396Z,12.59
2023-03-24T03:43:53.374Z,12.66
2023-03-24T03:44:53.362Z,12.46
2023-03-24T03:45:53.367Z,12.52
2023-03-24T03:46:53.323Z,12.60
2023-03-24T03:47:53.384Z,12.52
2023-03-24T03:48:53.336Z,12.60
2023-03-24T03:49:53.318Z,12.46
2023-03-24T03:51:02.787Z,12.62
2023-03-24T03:51:54.274Z,12.60
2023-03-24T03:52:53.274Z,12.48
2023-03-24T03:53:53.252Z,12.54
2023-03-24T03:54:53.242Z,12.49
2023-03-24T03:55:53.252Z,12.45
2023-03-24T03:56:53.265Z,12.56
2023-03-24T03:57:53.209Z,12.49
2023-03-24T03:58:53.191Z,12.48
2023-03-24T03:59:53.183Z,12.52
2023-03-24T04:00:53.185Z,12.49
2023-03-24T04:01:53.210Z,12.51
2023-03-24T04:02:53.343Z,12.48
2023-03-24T04:03:53.169Z,12.59
2023-03-24T04:04:59.793Z,12.63
2023-03-24T04:05:54.151Z,12.48
2023-03-24T04:06:53.104Z,12.63
2023-03-24T04:07:53.095Z,12.66
2023-03-24T04:08:53.081Z,12.49
2023-03-24T04:09:53.072Z,12.57
2023-03-24T04:10:53.086Z,12.59
2023-03-24T04:11:53.055Z,12.66
2023-03-24T04:12:53.044Z,12.54
2023-03-24T04:13:53.053Z,12.62
2023-03-24T04:14:53.018Z,12.48
2023-03-24T04:15:53.072Z,12.60
2023-03-24T04:16:53.000Z,12.59
2023-03-24T04:17:53.071Z,12.63
2023-03-24T04:18:52.995Z,12.54
2023-03-24T04:19:52.964Z,12.56
2023-03-24T04:20:52.954Z,12.63
2023-03-24T04:21:52.978Z,12.59
2023-03-24T04:22:52.944Z,12.59
2023-03-24T04:23:52.948Z,12.56
2023-03-24T04:24:52.908Z,12.57
2023-03-24T04:25:52.897Z,12.57
2023-03-24T04:26:52.903Z,12.57
2023-03-24T04:27:52.877Z,12.49
2023-03-24T04:28:52.876Z,12.66
2023-03-24T04:29:52.863Z,12.59
2023-03-24T04:30:52.868Z,12.56
2023-03-24T04:31:53.016Z,12.57
2023-03-24T04:32:52.848Z,12.51
2023-03-24T04:33:52.823Z,12.63
2023-03-24T04:34:52.799Z,12.52
2023-03-24T04:35:52.842Z,12.59
2023-03-24T04:36:52.811Z,12.54
2023-03-24T04:37:52.792Z,12.59
2023-03-24T04:38:52.763Z,12.60
2023-03-24T04:39:52.745Z,12.59
2023-03-24T04:40:52.736Z,12.71
2023-03-24T04:41:52.755Z,12.67
2023-03-24T04:42:52.875Z,12.69
2023-03-24T04:43:52.702Z,12.66
2023-03-24T04:44:52.697Z,12.67
2023-03-24T04:45:52.707Z,12.71
2023-03-24T04:46:52.697Z,12.70
2023-03-24T04:47:52.667Z,12.66
2023-03-24T04:48:52.650Z,12.77
2023-03-24T04:49:52.637Z,12.67
2023-03-24T04:50:52.624Z,12.77
2023-03-24T04:51:52.712Z,12.81
2023-03-24T04:52:52.601Z,12.77
2023-03-24T04:53:52.636Z,12.78
2023-03-24T04:54:52.583Z,12.75
2023-03-24T04:55:52.574Z,12.84
2023-03-24T04:56:52.703Z,12.82
2023-03-24T04:57:52.551Z,12.79
2023-03-24T04:58:52.569Z,12.85
2023-03-24T04:59:52.532Z,12.93
2023-03-24T05:00:52.552Z,12.87
2023-03-24T05:01:52.539Z,12.87
2023-03-24T05:02:52.538Z,12.87
2023-03-24T05:03:52.537Z,12.89
2023-03-24T05:04:52.469Z,12.87
2023-03-24T05:05:52.464Z,12.93
2023-03-24T05:06:52.467Z,12.99
2023-03-24T05:07:52.443Z,12.96
2023-03-24T05:08:52.441Z,12.89
2023-03-24T05:09:52.431Z,12.93
2023-03-24T05:10:52.407Z,12.96
2023-03-24T05:11:52.400Z,12.95
2023-03-24T05:12:52.383Z,12.95
2023-03-24T05:13:52.420Z,12.95
2023-03-24T05:14:52.360Z,12.89
2023-03-24T05:15:52.347Z,12.92
2023-03-24T05:16:52.390Z,12.93
2023-03-24T05:17:52.352Z,12.93
2023-03-24T05:18:52.318Z,12.99
2023-03-24T05:19:52.304Z,12.99
2023-03-24T05:20:52.302Z,13.06
2023-03-24T05:21:52.326Z,13.00
2023-03-24T05:22:52.279Z,13.04
2023-03-24T05:23:52.260Z,13.03
2023-03-24T05:24:52.248Z,13.06
2023-03-24T05:25:52.264Z,13.09
2023-03-24T05:26:52.243Z,13.07
2023-03-24T05:27:52.228Z,13.02
2023-03-24T05:28:52.270Z,13.20
2023-03-24T05:29:52.200Z,13.17
2023-03-24T05:30:52.210Z,13.17
2023-03-24T05:31:52.170Z,13.12
2023-03-24T05:32:52.204Z,13.20
2023-03-24T05:33:52.176Z,13.17
2023-03-24T05:34:52.158Z,13.20
2023-03-24T05:35:52.153Z,13.17
2023-03-24T05:36:52.126Z,13.18
2023-03-24T05:37:52.107Z,13.15
2023-03-24T05:38:52.126Z,13.15
2023-03-24T05:39:53.671Z,13.24
2023-03-24T05:40:52.078Z,13.22
2023-03-24T05:41:52.081Z,13.20
2023-03-24T05:42:52.051Z,13.20
2023-03-24T05:43:52.063Z,13.15
2023-03-24T05:44:52.037Z,13.18
2023-03-24T05:45:52.070Z,13.21
2023-03-24T05:46:52.019Z,13.17
2023-03-24T05:47:52.071Z,13.22
2023-03-24T05:48:51.987Z,13.22
2023-03-24T05:49:51.981Z,13.27
2023-03-24T05:50:51.968Z,13.15
2023-03-24T05:51:52.089Z,13.27
2023-03-24T05:52:51.948Z,13.21
2023-03-24T05:53:51.937Z,13.21
2023-03-24T05:54:51.934Z,13.18
2023-03-24T05:55:51.921Z,13.21
2023-03-24T05:56:51.982Z,13.24
2023-03-24T05:57:51.918Z,13.22
2023-03-24T05:58:51.880Z,13.22
2023-03-24T05:59:51.872Z,13.24
2023-03-24T06:00:51.858Z,13.22
2023-03-24T06:01:51.862Z,13.20
2023-03-24T06:02:51.902Z,13.22
2023-03-24T06:03:51.894Z,13.21
2023-03-24T06:04:51.834Z,13.32
2023-03-24T06:05:51.802Z,13.30
2023-03-24T06:06:51.807Z,13.27
2023-03-24T06:07:51.780Z,13.30
2023-03-24T06:08:51.770Z,13.27
2023-03-24T06:09:51.762Z,13.30
2023-03-24T06:10:51.753Z,13.33
2023-03-24T06:11:51.760Z,13.38
2023-03-24T06:12:51.724Z,13.37
2023-03-24T06:13:51.796Z,13.36
2023-03-24T06:14:51.704Z,13.30
2023-03-24T06:15:51.713Z,13.40
2023-03-24T06:16:51.702Z,13.37
2023-03-24T06:17:51.720Z,13.41
2023-03-24T06:18:51.661Z,13.49
2023-03-24T06:19:51.657Z,13.46
2023-03-24T06:20:51.640Z,13.51
2023-03-24T06:21:51.678Z,13.47
2023-03-24T06:22:51.616Z,13.46
2023-03-24T06:23:51.601Z,13.51
2023-03-24T06:24:51.591Z,13.47
2023-03-24T06:25:51.585Z,13.49
2023-03-24T06:26:51.594Z,13.54
2023-03-24T06:27:51.566Z,13.54
2023-03-24T06:28:51.549Z,13.49
2023-03-24T06:29:51.572Z,13.54
2023-03-24T06:30:51.558Z,13.55
2023-03-24T06:31:51.584Z,13.62
2023-03-24T06:32:51.609Z,13.55
2023-03-24T06:33:51.494Z,13.59
2023-03-24T06:34:51.490Z,13.58
2023-03-24T06:35:51.484Z,13.58
2023-03-24T06:36:51.478Z,13.59
2023-03-24T06:37:51.453Z,13.58
2023-03-24T06:38:51.447Z,13.62
2023-03-24T06:39:51.501Z,13.65
2023-03-24T06:40:51.422Z,13.67
2023-03-24T06:41:51.430Z,13.67
2023-03-24T06:42:51.403Z,13.63
2023-03-24T06:43:51.392Z,13.69
2023-03-24T06:44:51.440Z,13.62
2023-03-24T06:45:51.388Z,13.67
2023-03-24T06:46:51.423Z,13.61
2023-03-24T06:47:51.371Z,13.65
2023-03-24T06:48:51.337Z,13.70
2023-03-24T06:49:51.326Z,13.74
2023-03-24T06:50:51.313Z,13.70
2023-03-24T06:51:51.338Z,13.80
2023-03-24T06:52:51.294Z,13.79
2023-03-24T06:53:51.278Z,13.81
2023-03-24T06:54:51.276Z,13.79
2023-03-24T06:55:51.281Z,13.88
2023-03-24T06:56:51.276Z,13.91
2023-03-24T06:57:51.266Z,13.89
2023-03-24T06:58:51.224Z,13.92
2023-03-24T06:59:51.213Z,13.92
2023-03-24T07:00:51.202Z,13.92
2023-03-24T07:01:51.348Z,13.99
2023-03-24T07:02:51.256Z,14.01
2023-03-24T07:03:51.269Z,13.98
2023-03-24T07:04:51.160Z,13.98
2023-03-24T07:05:51.150Z,13.99
2023-03-24T07:07:08.647Z,13.92
2023-03-24T07:08:27.719Z,14.04
2023-03-24T07:08:52.115Z,14.06
2023-03-24T07:09:51.111Z,14.10
2023-03-24T07:10:51.107Z,14.16
2023-03-24T07:11:51.112Z,14.12
2023-03-24T07:12:51.079Z,14.16
2023-03-24T07:13:51.118Z,14.21
2023-03-24T07:14:51.059Z,14.16
2023-03-24T07:15:51.149Z,14.16
2023-03-24T07:16:51.071Z,14.27
2023-03-24T07:17:51.073Z,14.19
2023-03-24T07:18:51.022Z,14.24
2023-03-24T07:19:51.025Z,14.27
2023-03-24T07:20:50.995Z,14.25
2023-03-24T07:21:51.025Z,14.19
2023-03-24T07:22:50.968Z,14.31
2023-03-24T07:23:50.956Z,14.34
2023-03-24T07:24:53.629Z,14.35
2023-03-24T07:25:50.939Z,14.44
2023-03-24T07:26:50.955Z,14.50
2023-03-24T07:27:50.939Z,14.52
2023-03-24T07:28:50.910Z,14.62
2023-03-24T07:29:50.892Z,14.61
2023-03-24T07:30:53.795Z,14.78
2023-03-24T07:31:50.937Z,14.75
2023-03-24T07:32:50.879Z,15.08
2023-03-24T07:33:50.863Z,15.24
2023-03-24T07:34:50.842Z,15.38
2023-03-24T07:35:50.842Z,15.60
2023-03-24T07:36:51.039Z,15.86
2023-03-24T07:37:50.815Z,15.99
2023-03-24T07:38:50.809Z,15.96
2023-03-24T07:39:50.778Z,15.94
2023-03-24T07:40:50.773Z,15.84
2023-03-24T07:41:50.764Z,15.84
2023-03-24T07:42:50.758Z,15.66
2023-03-24T07:43:57.811Z,15.57
2023-03-24T07:44:50.726Z,15.49
2023-03-24T07:45:50.820Z,15.45
2023-03-24T07:46:50.703Z,15.42
2023-03-24T07:47:50.811Z,15.35
2023-03-24T07:48:50.691Z,15.28
2023-03-24T07:49:50.685Z,15.23
2023-03-24T07:50:50.666Z,15.33
2023-03-24T07:51:50.649Z,15.24
2023-03-24T07:52:50.670Z,15.28
2023-03-24T07:53:50.626Z,15.15
2023-03-24T07:54:50.614Z,15.13
2023-03-24T07:55:50.718Z,15.11
2023-03-24T07:56:50.633Z,15.11
2023-03-24T07:57:50.607Z,15.03
2023-03-24T07:58:50.606Z,14.98
2023-03-24T07:59:50.560Z,14.95
2023-03-24T08:00:50.902Z,14.86
2023-03-24T08:01:54.882Z,14.86
2023-03-24T08:02:51.646Z,14.87
2023-03-24T08:03:50.635Z,14.81
2023-03-24T08:04:50.504Z,14.93
2023-03-24T08:05:50.762Z,14.78
2023-03-24T08:06:50.483Z,14.81
2023-03-24T08:07:50.526Z,14.74
2023-03-24T08:08:50.468Z,14.67
2023-03-24T08:09:50.481Z,14.57
2023-03-24T08:10:50.456Z,14.64
2023-03-24T08:11:50.437Z,14.75
2023-03-24T08:12:50.438Z,14.68
2023-03-24T08:13:50.405Z,14.64
2023-03-24T08:14:50.400Z,14.65
2023-03-24T08:15:50.384Z,14.64
2023-03-24T08:16:50.442Z,14.57
2023-03-24T08:17:50.400Z,14.67
2023-03-24T08:18:50.353Z,14.64
2023-03-24T08:20:00.229Z,14.65
2023-03-24T08:20:51.329Z,14.64
2023-03-24T08:21:50.362Z,14.50
2023-03-24T08:22:50.348Z,14.53
2023-03-24T08:23:50.388Z,14.47
2023-03-24T08:24:50.287Z,14.53
2023-03-24T08:25:50.376Z,14.47
2023-03-24T08:26:50.266Z,14.47
2023-03-24T08:27:50.278Z,14.50
2023-03-24T08:28:50.294Z,14.53
2023-03-24T08:29:50.233Z,14.43
2023-03-24T08:30:50.622Z,14.42
2023-03-24T08:31:50.244Z,14.44
2023-03-24T08:32:50.305Z,14.43
2023-03-24T08:33:50.229Z,14.35
2023-03-24T08:34:50.189Z,14.37
2023-03-24T08:35:50.349Z,14.34
2023-03-24T08:36:50.160Z,14.35
2023-03-24T08:37:50.219Z,14.43
2023-03-24T08:38:50.135Z,14.35
2023-03-24T08:39:50.132Z,14.27
2023-03-24T08:40:50.119Z,14.37
2023-03-24T08:41:50.137Z,14.32
2023-03-24T08:42:50.117Z,14.37
2023-03-24T08:43:50.080Z,14.28
2023-03-24T08:44:50.072Z,14.28
2023-03-24T08:45:50.389Z,14.25
2023-03-24T08:46:50.113Z,14.25
2023-03-24T08:47:50.084Z,14.27
2023-03-24T08:48:50.026Z,14.31
2023-03-24T08:49:50.016Z,14.28
2023-03-24T08:50:50.008Z,14.25
2023-03-24T08:51:49.993Z,14.31
2023-03-24T08:52:50.031Z,14.29
2023-03-24T08:53:50.032Z,14.27
2023-03-24T08:54:49.962Z,14.25
2023-03-24T08:55:50.066Z,14.20
2023-03-24T08:56:49.945Z,14.37
2023-03-24T08:57:49.950Z,14.31
2023-03-24T08:58:49.917Z,14.31
2023-03-24T08:59:51.441Z,14.31
2023-03-24T09:00:49.893Z,14.32
2023-03-24T09:01:49.930Z,14.47
2023-03-24T09:02:49.998Z,14.52
2023-03-24T09:03:49.864Z,14.61
2023-03-24T09:04:49.938Z,14.64
2023-03-24T09:05:49.845Z,14.62
2023-03-24T09:06:49.850Z,14.67
2023-03-24T09:07:49.884Z,14.54
2023-03-24T09:08:49.813Z,14.53
2023-03-24T09:09:49.815Z,14.62
2023-03-24T09:10:49.797Z,14.64
2023-03-24T09:11:49.771Z,14.60
2023-03-24T09:12:49.777Z,14.62
2023-03-24T09:13:49.789Z,14.64
2023-03-24T09:14:49.745Z,14.64
2023-03-24T09:15:50.222Z,14.62
2023-03-24T09:16:49.736Z,14.61
2023-03-24T09:17:49.774Z,14.67
2023-03-24T09:18:49.700Z,14.67
2023-03-24T09:19:49.689Z,14.52
2023-03-24T09:20:50.014Z,14.50
2023-03-24T09:21:49.669Z,14.52
2023-03-24T09:22:49.665Z,14.50
2023-03-24T09:23:49.669Z,14.54
2023-03-24T09:24:49.636Z,14.56
2023-03-24T09:25:49.944Z,14.60
2023-03-24T09:26:49.631Z,14.65
2023-03-24T09:27:49.618Z,14.57
2023-03-24T09:28:49.587Z,14.52
2023-03-24T09:29:49.581Z,14.60
2023-03-24T09:30:49.991Z,14.64
2023-03-24T09:31:49.569Z,14.61
2023-03-24T09:32:49.744Z,14.60
2023-03-24T09:33:49.534Z,14.61
2023-03-24T09:34:49.523Z,14.64
2023-03-24T09:35:49.540Z,14.64
2023-03-24T09:36:49.510Z,14.65
2023-03-24T09:37:49.508Z,14.65
2023-03-24T09:38:49.479Z,14.78
2023-03-24T09:39:49.480Z,14.75
2023-03-24T09:40:49.582Z,15.08
2023-03-24T09:41:49.466Z,15.23
2023-03-24T09:42:49.454Z,15.57
2023-03-24T09:43:49.428Z,15.70
2023-03-24T09:44:50.604Z,15.94
2023-03-24T09:45:49.650Z,15.89
2023-03-24T09:46:49.426Z,16.09
2023-03-24T09:47:49.432Z,16.06
2023-03-24T09:48:49.368Z,16.11
2023-03-24T09:49:49.369Z,16.23
2023-03-24T09:50:49.351Z,16.23
2023-03-24T09:51:49.339Z,16.30
2023-03-24T09:52:49.343Z,16.35
2023-03-24T09:53:49.317Z,16.44
2023-03-24T09:54:49.330Z,16.49
2023-03-24T09:55:49.448Z,16.40
2023-03-24T09:56:51.229Z,16.34
2023-03-24T09:57:49.352Z,16.37
2023-03-24T09:58:49.263Z,16.33
2023-03-24T09:59:49.256Z,16.34
2023-03-24T10:00:49.507Z,16.31
2023-03-24T10:01:49.244Z,16.34
2023-03-24T10:02:51.553Z,16.38
2023-03-24T10:03:49.338Z,16.33
2023-03-24T10:04:49.199Z,16.31
2023-03-24T10:05:49.312Z,16.37
2023-03-24T10:06:49.179Z,16.31
2023-03-24T10:07:49.182Z,16.25
2023-03-24T10:08:49.158Z,16.25
2023-03-24T10:09:49.150Z,16.22
2023-03-24T10:10:49.271Z,16.25
2023-03-24T10:11:49.128Z,16.16
2023-03-24T10:12:49.129Z,16.18
2023-03-24T10:13:49.136Z,16.15
2023-03-24T10:14:49.093Z,16.12
2023-03-24T10:15:49.095Z,16.12
2023-03-24T10:16:49.103Z,16.14
2023-03-24T10:17:49.106Z,16.07
2023-03-24T10:18:49.079Z,16.04
2023-03-24T10:19:49.045Z,16.00
2023-03-24T10:20:49.030Z,16.09
2023-03-24T10:21:49.023Z,16.00
2023-03-24T10:22:49.010Z,15.99
2023-03-24T10:23:49.052Z,15.99
2023-03-24T10:24:48.989Z,15.97
2023-03-24T10:25:49.269Z,15.93
2023-03-24T10:26:48.966Z,15.99
2023-03-24T10:27:48.978Z,16.04
2023-03-24T10:28:48.948Z,16.04
2023-03-24T10:29:48.964Z,15.96
2023-03-24T10:30:49.547Z,16.03
2023-03-24T10:31:48.954Z,15.94
2023-03-24T10:32:48.992Z,15.93
2023-03-24T10:33:48.890Z,15.96
2023-03-24T10:34:48.880Z,16.06
2023-03-24T10:35:49.079Z,16.12
2023-03-24T10:36:48.864Z,16.23
2023-03-24T10:37:48.863Z,16.31
2023-03-24T10:38:48.837Z,16.31
2023-03-24T10:39:48.828Z,16.58
2023-03-24T10:40:48.848Z,16.67
2023-03-24T10:41:48.813Z,16.88
2023-03-24T10:42:48.832Z,16.96
2023-03-24T10:43:48.794Z,17.06
2023-03-24T10:44:48.786Z,17.15
2023-03-24T10:45:49.014Z,17.20
2023-03-24T10:46:48.910Z,17.23
2023-03-24T10:47:48.970Z,17.25
2023-03-24T10:48:48.803Z,17.18
2023-03-24T10:49:48.720Z,17.32
2023-03-24T10:50:48.713Z,17.25
2023-03-24T10:51:48.707Z,17.22
2023-03-24T10:52:48.830Z,17.14
2023-03-24T10:53:48.697Z,17.10
2023-03-24T10:54:48.689Z,17.13
2023-03-24T10:55:49.108Z,17.07
2023-03-24T10:56:48.665Z,17.08
2023-03-24T10:57:48.675Z,17.07
2023-03-24T10:58:48.629Z,16.95
2023-03-24T10:59:48.615Z,16.89
2023-03-24T11:00:48.641Z,16.89
2023-03-24T11:01:48.731Z,16.85
2023-03-24T11:02:48.799Z,16.81
2023-03-24T11:03:48.575Z,16.75
2023-03-24T11:04:48.571Z,16.74
2023-03-24T11:05:48.747Z,16.75
2023-03-24T11:06:48.533Z,16.80
2023-03-24T11:07:48.525Z,16.89
2023-03-24T11:08:48.525Z,16.83
2023-03-24T11:09:48.507Z,16.89
2023-03-24T11:10:48.488Z,16.90
2023-03-24T11:11:48.477Z,16.93
2023-03-24T11:12:48.465Z,16.81
2023-03-24T11:13:48.466Z,16.81
2023-03-24T11:14:48.448Z,16.80
2023-03-24T11:15:48.639Z,16.83
2023-03-24T11:16:48.437Z,16.75
2023-03-24T11:17:48.474Z,16.81
2023-03-24T11:18:48.408Z,16.83
2023-03-24T11:19:48.404Z,16.83
2023-03-24T11:20:48.377Z,16.93
2023-03-24T11:21:48.368Z,16.88
2023-03-24T11:22:48.360Z,17.07
2023-03-24T11:23:48.358Z,17.10
2023-03-24T11:24:48.338Z,17.11
2023-03-24T11:25:48.578Z,17.08
2023-03-24T11:26:48.311Z,17.20
2023-03-24T11:27:48.304Z,17.23
2023-03-24T11:28:48.312Z,17.28
2023-03-24T11:29:48.286Z,17.32
2023-03-24T11:30:48.315Z,17.26
2023-03-24T11:31:48.258Z,17.30
2023-03-24T11:32:48.340Z,17.25
2023-03-24T11:33:48.265Z,17.28
2023-03-24T11:34:48.235Z,17.26
2023-03-24T11:35:56.006Z,17.23
2023-03-24T11:36:49.254Z,17.29
2023-03-24T11:37:48.199Z,17.32
2023-03-24T11:38:48.195Z,17.36
2023-03-24T11:39:48.180Z,17.41
2023-03-24T11:40:48.161Z,17.47
2023-03-24T11:41:48.160Z,17.63
2023-03-24T11:42:48.141Z,17.50
2023-03-24T11:43:48.215Z,17.63
2023-03-24T11:44:48.122Z,17.64
2023-03-24T11:45:48.518Z,17.64
2023-03-24T11:46:48.127Z,17.64
2023-03-24T11:47:48.123Z,17.55
2023-03-24T11:48:48.417Z,17.64
2023-03-24T11:49:48.086Z,17.57
2023-03-24T11:50:48.101Z,17.69
2023-03-24T11:51:48.048Z,17.78
2023-03-24T11:52:48.038Z,17.74
2023-03-24T11:53:48.052Z,17.73
2023-03-24T11:54:48.014Z,17.73
2023-03-24T11:55:48.301Z,17.74
2023-03-24T11:56:48.007Z,17.79
2023-03-24T11:57:47.979Z,17.89
2023-03-24T11:58:47.989Z,17.92
2023-03-24T11:59:47.959Z,17.92
2023-03-24T12:00:47.963Z,17.89
2023-03-24T12:01:47.939Z,17.82
2023-03-24T12:02:48.107Z,17.87
2023-03-24T12:03:48.088Z,17.85
2023-03-24T12:04:47.902Z,17.73
2023-03-24T12:05:50.410Z,17.78
2023-03-24T12:06:47.891Z,17.73
2023-03-24T12:07:47.888Z,17.67
2023-03-24T12:08:47.892Z,17.69
2023-03-24T12:09:47.850Z,17.71
2023-03-24T12:10:47.840Z,17.76
2023-03-24T12:11:47.835Z,17.79
2023-03-24T12:12:47.833Z,17.73
2023-03-24T12:13:47.836Z,17.85
2023-03-24T12:14:47.800Z,17.85
2023-03-24T12:15:48.036Z,17.79
2023-03-24T12:16:47.813Z,17.85
2023-03-24T12:17:47.790Z,17.89
2023-03-24T12:18:47.783Z,17.79
2023-03-24T12:19:47.763Z,17.71
2023-03-24T12:20:47.730Z,17.74
2023-03-24T12:21:47.743Z,17.76
2023-03-24T12:22:47.712Z,17.73
2023-03-24T12:23:47.712Z,17.78
2023-03-24T12:24:47.692Z,17.92
2023-03-24T12:25:47.845Z,17.88
2023-03-24T12:26:47.673Z,17.91
2023-03-24T12:27:47.656Z,17.92
2023-03-24T12:28:47.679Z,17.91
2023-03-24T12:29:47.642Z,17.92
2023-03-24T12:30:47.866Z,17.97
2023-03-24T12:31:47.650Z,17.95
2023-03-24T12:32:47.620Z,17.88
2023-03-24T12:33:47.610Z,17.97
2023-03-24T12:34:47.580Z,17.82
2023-03-24T12:35:47.809Z,17.87
2023-03-24T12:36:47.557Z,17.81
2023-03-24T12:37:47.569Z,17.84
2023-03-24T12:38:47.544Z,17.81
2023-03-24T12:39:47.524Z,17.76
2023-03-24T12:40:47.514Z,17.73
2023-03-24T12:41:47.507Z,17.64
2023-03-24T12:42:47.494Z,17.66
2023-03-24T12:43:47.549Z,17.59
2023-03-24T12:44:47.468Z,17.57
2023-03-24T12:45:47.610Z,17.63
2023-03-24T12:46:48.885Z,17.54
2023-03-24T12:47:47.470Z,17.44
2023-03-24T12:48:47.464Z,17.47
2023-03-24T12:49:47.416Z,17.43
2023-03-24T12:50:47.404Z,17.44
2023-03-24T12:51:47.391Z,17.44
2023-03-24T12:52:55.268Z,17.47